Time;durP1;ratioP1;P1;durP2;ratioP2;P2;SDS_P1;SDS_P2;PMS_P1;PMS_P2;Temp;Humidity;BMP_temperature;BMP_pressure;BME280_temperature;BME280_humidity;BME280_pressure;Samples;Min_cycle;Max_cycle;Signal;HPM_P1;HPM_P2
2024/03/15 00:02:23;;;;;;;52.00;33.80;;;;;;;11.00;100.00;100030.98;177682;1258;46210;-82
2024/03/15 00:06:26;;;;;;;41.90;30.30;;;;;;;10.97;100.00;100025.96;178428;1256;45985;-83
2024/03/15 00:10:28;;;;;;;51.90;33.30;;;;;;;10.92;100.00;100022.08;178254;1256;46018;-83
2024/03/15 00:14:30;;;;;;;55.20;38.00;;;;;;;10.95;100.00;100016.50;178378;1256;45959;-84
2024/03/15 00:18:36;;;;;;;56.20;36.20;;;;;;;10.97;100.00;100008.52;178328;1259;58027;-84
2024/03/15 00:22:37;;;;;;;55.20;36.90;;;;;;;10.99;100.00;100003.23;178406;1259;46003;-83
2024/03/15 00:26:40;;;;;;;48.90;34.70;;;;;;;11.00;100.00;100001.58;178112;1260;46137;-83
2024/03/15 00:30:42;;;;;;;56.90;34.10;;;;;;;10.94;100.00;99994.94;178344;1256;46000;-83
2024/03/15 00:34:44;;;;;;;54.50;35.90;;;;;;;10.90;100.00;99987.39;178828;1257;45993;-83
2024/03/15 00:38:45;;;;;;;58.70;33.70;;;;;;;10.86;100.00;99983.28;178646;1257;58053;-82
2024/03/15 00:42:47;;;;;;;45.00;32.70;;;;;;;10.79;100.00;99980.13;178052;1259;45981;-83
2024/03/15 00:46:49;;;;;;;51.50;32.20;;;;;;;10.73;100.00;99976.39;178712;1257;45904;-83
2024/03/15 00:50:51;;;;;;;49.30;35.20;;;;;;;10.73;100.00;99972.73;178188;1256;46045;-83
2024/03/15 00:54:53;;;;;;;48.00;29.90;;;;;;;10.78;100.00;99967.48;177793;1257;45996;-83
2024/03/15 00:58:54;;;;;;;43.90;30.90;;;;;;;10.83;100.00;99965.63;177997;1256;58291;-83
2024/03/15 01:02:57;;;;;;;41.00;30.20;;;;;;;10.88;100.00;99956.46;177549;1257;46221;-83
2024/03/15 01:06:59;;;;;;;38.00;29.20;;;;;;;10.93;100.00;99950.94;178394;1256;46121;-83
2024/03/15 01:11:01;;;;;;;42.70;29.50;;;;;;;10.98;100.00;99947.27;178604;1261;45968;-83
2024/03/15 01:15:03;;;;;;;39.70;26.70;;;;;;;11.02;100.00;99942.35;177943;1258;46009;-83
2024/03/15 01:19:05;;;;;;;32.70;28.10;;;;;;;11.08;100.00;99940.53;178509;1256;58215;-83
2024/03/15 01:23:07;;;;;;;38.10;25.70;;;;;;;11.09;100.00;99936.53;177578;1256;46144;-84
2024/03/15 01:27:08;;;;;;;35.20;26.70;;;;;;;11.05;100.00;99941.65;178643;1256;45985;-83
2024/03/15 01:31:10;;;;;;;42.00;28.80;;;;;;;11.04;100.00;99942.86;177816;1256;46110;-83
2024/03/15 01:35:12;;;;;;;37.50;24.90;;;;;;;11.06;100.00;99940.47;178102;1256;45951;-83
2024/03/15 01:39:14;;;;;;;37.30;25.70;;;;;;;11.05;100.00;99931.58;178470;1256;59605;-83
2024/03/15 01:43:16;;;;;;;41.80;26.90;;;;;;;11.01;100.00;99927.80;178764;1256;46197;-83
2024/03/15 01:47:21;;;;;;;37.50;26.40;;;;;;;11.01;100.00;99926.23;178786;1259;46096;-83
2024/03/15 01:51:23;;;;;;;36.70;26.40;;;;;;;10.97;100.00;99925.69;178429;1256;46614;-83
2024/03/15 01:55:25;;;;;;;44.90;30.80;;;;;;;10.87;100.00;99920.36;178140;1256;46035;-83
2024/03/15 01:59:26;;;;;;;39.80;28.90;;;;;;;10.83;100.00;99913.80;178056;1256;59301;-83
2024/03/15 02:03:31;;;;;;;43.90;31.20;;;;;;;10.84;100.00;99908.70;178714;1256;44963;-83
2024/03/15 02:07:33;;;;;;;52.30;32.70;;;;;;;10.83;100.00;99904.25;178615;1257;46117;-82
2024/03/15 02:11:34;;;;;;;50.10;32.80;;;;;;;10.80;100.00;99904.34;178318;1256;47006;-83
2024/03/15 02:15:36;;;;;;;54.50;35.20;;;;;;;10.77;100.00;99908.10;177737;1256;46153;-83
2024/03/15 02:19:39;;;;;;;52.40;33.80;;;;;;;10.71;100.00;99910.77;177937;1256;59395;-83
2024/03/15 02:23:42;;;;;;;45.30;33.20;;;;;;;10.62;100.00;99910.30;178828;1256;46377;-82
2024/03/15 02:27:45;;;;;;;50.00;35.10;;;;;;;10.45;100.00;99910.88;177888;1257;46045;-83
2024/03/15 02:31:46;;;;;;;50.20;34.50;;;;;;;10.38;100.00;99912.73;178474;1256;46186;-83
2024/03/15 02:35:50;;;;;;;48.40;34.20;;;;;;;10.37;100.00;99915.69;178258;1260;46049;-83
2024/03/15 02:39:51;;;;;;;47.40;33.90;;;;;;;10.36;100.00;99913.39;178617;1256;57212;-83
2024/03/15 02:43:53;;;;;;;52.70;35.90;;;;;;;10.38;100.00;99919.11;179114;1256;46056;-82
2024/03/15 02:47:55;;;;;;;66.30;37.80;;;;;;;10.40;100.00;99921.22;178263;1256;46120;-83
2024/03/15 02:51:57;;;;;;;52.80;36.20;;;;;;;10.35;100.00;99919.57;179419;1256;44348;-83
2024/03/15 02:56:00;;;;;;;50.60;35.80;;;;;;;10.31;100.00;99919.36;177648;1257;46197;-83
2024/03/15 03:00:02;;;;;;;44.60;32.20;;;;;;;10.20;100.00;99917.67;178694;1256;59568;-83
2024/03/15 03:04:05;;;;;;;49.30;34.90;;;;;;;10.06;100.00;99915.42;178655;1256;45152;-83
2024/03/15 03:08:07;;;;;;;47.50;33.20;;;;;;;9.98;100.00;99913.07;178411;1259;46140;-83
2024/03/15 03:12:09;;;;;;;47.00;33.20;;;;;;;9.88;100.00;99909.73;178674;1256;46117;-83
2024/03/15 03:16:18;;;;;;;50.90;35.50;;;;;;;9.70;100.00;99914.09;178225;1257;46091;-83
2024/03/15 03:20:23;;;;;;;51.90;32.70;;;;;;;9.57;100.00;99912.85;178149;1256;59228;-83
2024/03/15 03:24:25;;;;;;;48.30;30.70;;;;;;;9.50;100.00;99910.90;178814;1260;46128;-83
2024/03/15 03:28:27;;;;;;;47.60;32.90;;;;;;;9.49;100.00;99905.67;178386;1256;45997;-83
2024/03/15 03:32:29;;;;;;;45.70;33.70;;;;;;;9.48;100.00;99907.73;177892;1262;45987;-83
2024/03/15 03:36:31;;;;;;;52.60;35.00;;;;;;;9.46;100.00;99906.85;177821;1262;46088;-83
2024/03/15 03:40:33;;;;;;;53.90;35.90;;;;;;;9.42;100.00;99907.11;178206;1260;59663;-83
2024/03/15 03:44:36;;;;;;;47.40;35.30;;;;;;;9.42;100.00;99901.70;178249;1256;45959;-83
2024/03/15 03:48:38;;;;;;;58.50;37.20;;;;;;;9.39;100.00;99899.84;178111;1259;46144;-82
2024/03/15 03:52:41;;;;;;;57.70;37.50;;;;;;;9.38;100.00;99898.63;177745;1257;46122;-84
2024/03/15 03:56:42;;;;;;;51.80;34.20;;;;;;;9.38;100.00;99897.40;177994;1259;46153;-83
2024/03/15 04:00:44;;;;;;;57.90;35.70;;;;;;;9.36;100.00;99895.83;178092;1256;59469;-84
2024/03/15 04:04:46;;;;;;;54.50;35.40;;;;;;;9.35;100.00;99893.58;178160;1260;46107;-84
2024/03/15 04:08:48;;;;;;;51.00;38.30;;;;;;;9.30;100.00;99890.24;178408;1256;46106;-83
2024/03/15 04:12:50;;;;;;;56.70;35.40;;;;;;;9.24;100.00;99883.13;178348;1260;44411;-84
2024/03/15 04:16:54;;;;;;;49.60;34.30;;;;;;;9.14;100.00;99888.23;178144;1261;45905;-83
2024/03/15 04:20:56;;;;;;;52.10;34.80;;;;;;;9.07;100.00;99890.04;178843;1260;59559;-83
2024/03/15 04:24:59;;;;;;;66.30;37.70;;;;;;;8.96;100.00;99889.31;178333;1257;46092;-83
2024/03/15 04:29:01;;;;;;;52.20;33.80;;;;;;;8.88;100.00;99888.86;178088;1257;46091;-83
2024/03/15 04:33:03;;;;;;;46.50;32.40;;;;;;;8.84;100.00;99888.70;178272;1257;45971;-82
2024/03/15 04:37:05;;;;;;;41.70;30.30;;;;;;;8.77;100.00;99884.65;178705;1260;46002;-82
2024/03/15 04:41:09;;;;;;;47.50;32.70;;;;;;;8.72;100.00;99887.36;178007;1260;58651;-82
2024/03/15 04:45:14;;;;;;;44.70;31.10;;;;;;;8.67;100.00;99885.27;178130;1256;46185;-82
2024/03/15 04:49:17;;;;;;;48.30;31.70;;;;;;;8.64;100.00;99884.08;179325;1256;46031;-83
2024/03/15 04:53:19;;;;;;;47.90;33.20;;;;;;;8.64;100.00;99883.54;178567;1260;45983;-83
2024/03/15 04:57:25;;;;;;;47.80;34.30;;;;;;;8.61;100.00;99884.14;178536;1258;45066;-83
2024/03/15 05:01:27;;;;;;;50.60;35.50;;;;;;;8.56;100.00;99882.73;178333;1257;57494;-83
2024/03/15 05:05:28;;;;;;;52.80;34.00;;;;;;;8.54;100.00;99881.13;178927;1256;45911;-83
2024/03/15 05:09:30;;;;;;;55.40;34.70;;;;;;;8.50;100.00;99879.52;178335;1260;46003;-83
2024/03/15 05:13:32;;;;;;;66.50;45.00;;;;;;;8.46;100.00;99882.86;178475;1260;45885;-83
2024/03/15 05:17:34;;;;;;;51.30;36.70;;;;;;;8.40;100.00;99885.53;178885;1260;46035;-83
2024/03/15 05:21:36;;;;;;;52.30;39.40;;;;;;;8.36;100.00;99885.06;178341;1258;57910;-82
2024/03/15 05:25:38;;;;;;;55.90;36.70;;;;;;;8.36;100.00;99890.65;178298;1257;45971;-83
2024/03/15 05:29:39;;;;;;;62.20;41.60;;;;;;;8.39;100.00;99889.20;178700;1257;44343;-83
2024/03/15 05:33:42;;;;;;;55.40;41.70;;;;;;;8.41;100.00;99890.98;177849;1257;46471;-82
2024/03/15 05:37:45;;;;;;;60.60;38.60;;;;;;;8.47;100.00;99894.09;178355;1260;44817;-83
2024/03/15 05:41:47;;;;;;;57.90;41.70;;;;;;;8.55;100.00;99894.02;178127;1257;58253;-83
2024/03/15 05:45:48;;;;;;;47.90;38.00;;;;;;;8.65;100.00;99891.42;178321;1260;46105;-83
2024/03/15 05:49:50;;;;;;;48.70;34.20;;;;;;;8.74;100.00;99895.87;178391;1260;46152;-83
2024/03/15 05:53:52;;;;;;;50.80;37.90;;;;;;;8.70;100.00;99896.36;178089;1261;46086;-84
2024/03/15 05:57:54;;;;;;;54.20;37.20;;;;;;;8.72;100.00;99890.70;178196;1256;46001;-83
2024/03/15 06:01:56;;;;;;;57.90;36.40;;;;;;;8.72;100.00;99887.38;177696;1260;58137;-83
2024/03/15 06:05:58;;;;;;;48.30;35.90;;;;;;;8.74;100.00;99887.89;178468;1257;44281;-83
2024/03/15 06:10:00;;;;;;;47.90;37.10;;;;;;;8.79;100.00;99889.10;177859;1259;45961;-82
2024/03/15 06:14:02;;;;;;;53.20;35.40;;;;;;;8.86;100.00;99888.34;178833;1256;45986;-82
2024/03/15 06:18:04;;;;;;;51.40;34.20;;;;;;;8.93;100.00;99891.82;177824;1257;46060;-83
2024/03/15 06:22:06;;;;;;;55.90;39.70;;;;;;;9.02;100.00;99893.40;177925;1258;60176;-84
2024/03/15 06:26:08;;;;;;;49.50;35.60;;;;;;;9.11;100.00;99887.93;177703;1257;46095;-83
2024/03/15 06:30:14;;;;;;;49.80;37.00;;;;;;;9.28;100.00;99887.29;177848;1258;46553;-83
2024/03/15 06:34:22;;;;;;;61.80;40.20;;;;;;;9.44;100.00;99891.23;178020;1257;46543;-83
2024/03/15 06:47:14;;;;;;;54.20;34.70;;;;;;;9.97;100.00;99879.73;178804;1257;46038;-84
2024/03/15 06:55:36;;;;;;;49.80;35.60;;;;;;;10.59;100.00;99874.73;179001;1258;45882;-83
2024/03/15 06:59:38;;;;;;;50.20;37.20;;;;;;;10.89;100.00;99875.83;178621;1257;46201;-83
2024/03/15 07:03:43;;;;;;;56.20;34.40;;;;;;;11.15;100.00;99875.30;177777;1258;59349;-83
2024/03/15 07:07:45;;;;;;;41.40;32.10;;;;;;;11.45;100.00;99867.81;179229;1256;46187;-83
2024/03/15 07:11:47;;;;;;;50.30;30.80;;;;;;;11.74;100.00;99865.10;178418;1257;45994;-83
2024/03/15 07:15:51;;;;;;;46.00;33.10;;;;;;;11.93;100.00;99862.34;178596;1258;46097;-83
2024/03/15 07:19:55;;;;;;;37.50;29.70;;;;;;;12.12;100.00;99858.10;179108;1258;45988;-83
2024/03/15 07:23:57;;;;;;;39.80;27.80;;;;;;;12.27;100.00;99863.36;178071;1260;59911;-83
2024/03/15 07:27:59;;;;;;;39.00;28.70;;;;;;;12.42;100.00;99869.48;178144;1257;46130;-84
2024/03/15 07:32:01;;;;;;;41.60;28.00;;;;;;;12.56;100.00;99867.63;178523;1260;46116;-83
2024/03/15 07:36:06;;;;;;;41.30;25.30;;;;;;;12.78;100.00;99867.60;178540;1257;46115;-83
2024/03/15 07:40:11;;;;;;;43.00;28.30;;;;;;;12.99;100.00;99867.49;178968;1259;46051;-82
2024/03/15 07:44:14;;;;;;;42.80;29.40;;;;;;;13.17;100.00;99863.11;178582;1257;59724;-82
2024/03/15 07:48:16;;;;;;;41.70;25.70;;;;;;;13.24;100.00;99857.77;179116;1256;46157;-82
2024/03/15 07:52:18;;;;;;;35.10;23.60;;;;;;;13.29;100.00;99856.05;178272;1257;46035;-81
2024/03/15 07:56:22;;;;;;;30.60;22.50;;;;;;;13.40;100.00;99857.48;179689;1258;46003;-82
2024/03/15 08:00:23;;;;;;;33.00;22.00;;;;;;;13.44;100.00;99859.13;178692;1258;46022;-81
2024/03/15 08:04:26;;;;;;;28.30;20.70;;;;;;;13.39;100.00;99853.83;178151;1260;58003;-81
2024/03/15 08:08:28;;;;;;;31.80;20.70;;;;;;;13.28;100.00;99850.79;177780;1256;46084;-82
2024/03/15 08:12:29;;;;;;;29.20;20.80;;;;;;;13.25;100.00;99844.89;177519;1256;46124;-82
2024/03/15 08:16:35;;;;;;;30.30;20.40;;;;;;;13.42;100.00;99843.14;178078;1257;46118;-82
2024/03/15 08:20:36;;;;;;;29.50;21.50;;;;;;;13.54;100.00;99841.93;178322;1258;46121;-82
2024/03/15 08:24:38;;;;;;;28.00;21.40;;;;;;;13.65;100.00;99840.52;178555;1257;57471;-81
2024/03/15 08:28:41;;;;;;;52.70;23.50;;;;;;;13.93;100.00;99841.02;177619;1257;45992;-83
2024/03/15 08:32:43;;;;;;;26.70;20.20;;;;;;;14.16;100.00;99833.80;178474;1257;46000;-84
2024/03/15 08:36:45;;;;;;;24.20;19.80;;;;;;;14.33;100.00;99832.96;178175;1257;46127;-83
2024/03/15 08:40:46;;;;;;;26.60;16.20;;;;;;;14.52;100.00;99829.47;178594;1257;46078;-83
2024/03/15 08:44:49;;;;;;;21.10;17.40;;;;;;;14.65;100.00;99825.77;178300;1257;58671;-83
2024/03/15 08:48:51;;;;;;;22.50;18.20;;;;;;;14.70;100.00;99822.23;179226;1256;44155;-84
2024/03/15 08:52:53;;;;;;;25.10;18.30;;;;;;;14.86;100.00;99817.51;178317;1256;44732;-83
2024/03/15 08:56:56;;;;;;;24.00;16.40;;;;;;;14.99;100.00;99821.23;178197;1256;46103;-83
2024/03/15 09:00:58;;;;;;;28.60;19.40;;;;;;;15.11;100.00;99817.66;178248;1256;46040;-83
2024/03/15 09:05:01;;;;;;;23.80;15.90;;;;;;;15.37;100.00;99818.06;178800;1257;57922;-84
2024/03/15 09:09:11;;;;;;;19.40;14.50;;;;;;;15.69;100.00;99816.88;178121;1257;46112;-83
2024/03/15 09:13:13;;;;;;;17.40;14.50;;;;;;;16.00;100.00;99807.36;178584;1256;46009;-83
2024/03/15 09:17:17;;;;;;;25.40;12.40;;;;;;;16.33;98.97;99801.97;178259;1257;46437;-83
2024/03/15 09:21:20;;;;;;;11.30;8.00;;;;;;;16.57;91.67;99800.80;178433;1257;44307;-84
2024/03/15 09:25:26;;;;;;;13.00;9.50;;;;;;;16.85;86.20;99800.19;178377;1256;58235;-82
2024/03/15 09:29:28;;;;;;;10.20;6.70;;;;;;;17.06;86.89;99795.55;178856;1257;46145;-81
2024/03/15 09:33:34;;;;;;;9.00;7.60;;;;;;;17.28;83.25;99794.86;178825;1256;45877;-83
2024/03/15 09:37:38;;;;;;;8.00;6.80;;;;;;;17.38;82.23;99790.98;178381;1257;46048;-83
2024/03/15 09:41:42;;;;;;;8.90;5.80;;;;;;;17.41;81.55;99790.61;178255;1257;45985;-83
2024/03/15 09:45:44;;;;;;;5.80;5.10;;;;;;;17.47;81.35;99787.92;178202;1257;59429;-82
2024/03/15 09:49:48;;;;;;;5.50;5.00;;;;;;;17.54;80.75;99788.90;178690;1257;46120;-82
2024/03/15 09:53:50;;;;;;;6.10;5.10;;;;;;;17.61;82.07;99784.99;178666;1257;44833;-83
2024/03/15 09:57:52;;;;;;;6.70;5.00;;;;;;;17.57;80.42;99783.15;179504;1257;45958;-82
2024/03/15 10:01:55;;;;;;;6.80;5.50;;;;;;;17.58;80.73;99783.09;178481;1260;46300;-83
2024/03/15 10:05:56;;;;;;;6.20;4.70;;;;;;;17.64;80.35;99780.52;178762;1256;59345;-83
2024/03/15 10:10:05;;;;;;;7.30;5.30;;;;;;;17.70;79.59;99779.98;178696;1257;46114;-82
2024/03/15 10:14:08;;;;;;;5.90;4.50;;;;;;;17.75;77.82;99771.71;178831;1256;46088;-83
2024/03/15 10:18:11;;;;;;;5.50;4.20;;;;;;;17.86;75.47;99766.76;179360;1256;44365;-84
2024/03/15 10:22:12;;;;;;;3.40;3.10;;;;;;;17.96;76.92;99762.01;178756;1256;46030;-83
2024/03/15 10:26:14;;;;;;;7.40;2.70;;;;;;;18.08;74.28;99756.27;177844;1257;57523;-82
2024/03/15 10:30:24;;;;;;;3.10;2.20;;;;;;;18.25;74.74;99755.98;178599;1257;46785;-82
2024/03/15 10:34:26;;;;;;;3.50;2.50;;;;;;;18.44;73.95;99754.80;178244;1257;44112;-82
2024/03/15 10:38:28;;;;;;;2.60;2.00;;;;;;;18.61;72.10;99748.73;179057;1256;46045;-83
2024/03/15 10:42:30;;;;;;;3.70;1.70;;;;;;;18.81;69.90;99741.80;178142;1260;46005;-84
2024/03/15 10:46:37;;;;;;;2.40;1.90;;;;;;;18.96;69.99;99741.39;178873;1256;58712;-82
2024/03/15 10:50:41;;;;;;;2.30;1.80;;;;;;;19.05;69.02;99740.62;179453;1256;45028;-82
2024/03/15 10:54:43;;;;;;;4.60;2.30;;;;;;;19.07;67.63;99742.24;180311;1257;46219;-82
2024/03/15 10:58:46;;;;;;;6.50;1.90;;;;;;;19.14;68.51;99740.02;178964;1256;46057;-82
2024/03/15 11:02:48;;;;;;;3.20;2.20;;;;;;;19.23;68.62;99737.64;178840;1259;123083;-82
2024/03/15 11:18:02;;;;;;;3.00;2.40;;;;;;;19.60;65.69;99729.91;175350;1284;580229;-83
2024/03/15 11:22:10;;;;;;;2.80;2.10;;;;;;;19.70;67.30;99727.81;178721;1266;129561;-82
2024/03/15 11:26:20;;;;;;;2.00;1.60;;;;;;;19.63;65.16;99724.27;178058;1259;46006;-83
2024/03/15 11:30:29;;;;;;;5.20;2.20;;;;;;;19.56;65.49;99721.14;179061;1259;46150;-81
2024/03/15 11:34:32;;;;;;;2.80;1.60;;;;;;;19.55;63.33;99717.89;179782;1259;46096;-83
2024/03/15 11:38:36;;;;;;;1.80;1.30;;;;;;;19.61;64.82;99713.77;179171;1259;46438;-82
2024/03/15 11:42:39;;;;;;;2.20;2.00;;;;;;;19.73;67.89;99710.59;178501;1260;59420;-82
2024/03/15 11:46:42;;;;;;;2.70;1.70;;;;;;;19.70;65.29;99708.39;179575;1260;44112;-84
2024/03/15 11:50:46;;;;;;;1.90;1.10;;;;;;;19.69;65.59;99706.39;179303;1258;46103;-82
2024/03/15 11:54:54;;;;;;;2.80;1.10;;;;;;;19.70;64.88;99704.86;179554;1257;45987;-82
2024/03/15 11:59:02;;;;;;;4.70;2.40;;;;;;;19.72;65.42;99693.73;180247;1257;44124;-82
2024/03/15 12:03:08;;;;;;;2.00;1.60;;;;;;;19.71;63.42;99693.24;179526;1257;58884;-82
2024/03/15 12:07:11;;;;;;;12.00;3.50;;;;;;;19.74;64.05;99694.30;178917;1257;46098;-81
2024/03/15 12:11:15;;;;;;;2.10;1.30;;;;;;;19.76;63.72;99696.34;179609;1257;44141;-82
2024/03/15 12:15:27;;;;;;;3.60;2.40;;;;;;;19.74;63.48;99695.20;179300;1257;44182;-82
2024/03/15 12:19:30;;;;;;;1.60;1.50;;;;;;;19.69;64.98;99693.93;179306;1257;45997;-82
2024/03/15 12:23:33;;;;;;;1.40;1.00;;;;;;;19.71;65.30;99688.67;179150;1257;58457;-82
2024/03/15 12:27:39;;;;;;;4.40;2.10;;;;;;;19.67;64.28;99685.75;178877;1257;45970;-83
2024/03/15 12:31:43;;;;;;;23.10;3.00;;;;;;;19.64;66.66;99683.00;178993;1257;45966;-84
2024/03/15 12:35:49;;;;;;;2.10;1.60;;;;;;;19.67;67.15;99684.48;179321;1257;46336;-84
2024/03/15 12:39:52;;;;;;;2.70;2.30;;;;;;;19.66;66.36;99683.38;179182;1260;45985;-85
2024/03/15 12:43:55;;;;;;;3.20;2.30;;;;;;;19.58;65.82;99681.92;180024;1257;60199;-83
2024/03/15 12:47:58;;;;;;;7.20;1.50;;;;;;;19.61;66.71;99679.20;179160;1257;46005;-85
2024/03/15 12:52:01;;;;;;;4.00;2.20;;;;;;;19.65;64.09;99673.58;179038;1260;46003;-83
2024/03/15 12:56:04;;;;;;;1.90;1.60;;;;;;;19.73;65.83;99670.28;178948;1257;46022;-85
2024/03/15 13:00:12;;;;;;;4.50;2.30;;;;;;;19.79;65.37;99663.52;178879;1257;46081;-83
2024/03/15 13:04:16;;;;;;;2.40;1.50;;;;;;;19.76;64.31;99659.64;178620;1257;58281;-83
2024/03/15 13:08:19;;;;;;;29.00;6.20;;;;;;;19.78;64.17;99661.72;178857;1257;44881;-85
2024/03/15 13:12:22;;;;;;;4.10;2.00;;;;;;;19.77;66.33;99662.51;179415;1257;48530;-82
2024/03/15 13:16:25;;;;;;;3.10;2.50;;;;;;;19.87;64.45;99666.45;178808;1259;46695;-84
2024/03/15 13:20:28;;;;;;;2.90;2.30;;;;;;;19.77;65.95;99659.14;178213;1260;46276;-86
2024/03/15 13:24:31;;;;;;;10.40;3.70;;;;;;;19.72;66.72;99660.86;178846;1259;59625;-84
2024/03/15 13:28:34;;;;;;;3.40;3.00;;;;;;;19.60;69.01;99663.14;178472;1262;46109;-84
2024/03/15 13:32:41;;;;;;;4.30;3.60;;;;;;;19.50;67.73;99664.42;178279;1260;45902;-85
2024/03/15 13:36:45;;;;;;;3.00;2.70;;;;;;;19.40;68.04;99660.10;178093;1259;45978;-85
2024/03/15 13:40:50;;;;;;;6.30;3.20;;;;;;;19.38;68.97;99656.14;178663;1260;46613;-84
2024/03/15 13:44:55;;;;;;;4.00;3.10;;;;;;;19.45;71.88;99654.64;178787;1258;58674;-83
2024/03/15 13:48:59;;;;;;;5.40;3.50;;;;;;;19.56;69.50;99649.80;178663;1259;45965;-84
2024/03/15 13:53:08;;;;;;;3.90;3.40;;;;;;;19.50;69.88;99645.01;178451;1260;45963;-84
2024/03/15 13:57:12;;;;;;;4.30;3.80;;;;;;;19.36;71.92;99641.98;178909;1260;46008;-84
2024/03/15 14:01:18;;;;;;;7.00;4.40;;;;;;;19.26;72.03;99643.39;178531;1260;46106;-84
2024/03/15 14:05:22;;;;;;;4.30;3.60;;;;;;;19.20;72.54;99641.56;179275;1258;58344;-85
2024/03/15 14:09:25;;;;;;;5.70;4.80;;;;;;;19.19;71.95;99641.55;179139;1258;46077;-83
2024/03/15 14:13:29;;;;;;;6.10;4.00;;;;;;;19.15;71.37;99641.96;178954;1258;46425;-84
2024/03/15 14:17:32;;;;;;;7.10;4.00;;;;;;;19.11;72.07;99641.39;179382;1262;46087;-84
2024/03/15 14:21:35;;;;;;;7.40;3.10;;;;;;;19.10;72.31;99638.23;179462;1260;46544;-81
2024/03/15 14:25:38;;;;;;;7.40;3.80;;;;;;;19.13;73.89;99638.38;178796;1260;58870;-84
2024/03/15 14:29:41;;;;;;;5.60;4.50;;;;;;;19.17;76.17;99635.79;178621;1259;45927;-84
2024/03/15 14:33:44;;;;;;;9.20;5.30;;;;;;;19.21;76.57;99634.98;179005;1256;44537;-85
2024/03/15 14:37:48;;;;;;;12.70;6.40;;;;;;;19.22;75.21;99629.64;178610;1256;44765;-83
2024/03/15 14:41:51;;;;;;;7.50;5.90;;;;;;;19.26;76.12;99628.78;179820;1256;46092;-82
2024/03/15 14:45:54;;;;;;;5.90;3.80;;;;;;;19.23;75.05;99627.94;179277;1256;58314;-82
2024/03/15 14:50:02;;;;;;;5.20;4.20;;;;;;;19.18;74.92;99623.39;179280;1256;45911;-82
2024/03/15 14:54:07;;;;;;;6.30;4.90;;;;;;;19.16;76.79;99620.68;179548;1256;45994;-82
2024/03/15 14:58:13;;;;;;;4.90;4.10;;;;;;;19.14;78.55;99619.72;179530;1259;46154;-82
2024/03/15 15:02:19;;;;;;;5.10;3.80;;;;;;;19.10;80.43;99620.77;179276;1256;45866;-82
2024/03/15 15:06:22;;;;;;;3.50;3.20;;;;;;;19.04;82.23;99622.10;180024;1257;58356;-82
2024/03/15 15:10:29;;;;;;;4.20;3.50;;;;;;;18.99;82.79;99622.93;179246;1257;46001;-82
2024/03/15 15:14:32;;;;;;;5.20;3.10;;;;;;;18.95;82.56;99621.39;179461;1255;46118;-82
2024/03/15 15:18:35;;;;;;;7.60;4.40;;;;;;;18.93;83.97;99618.77;179654;1255;46256;-82
2024/03/15 15:22:40;;;;;;;8.50;4.80;;;;;;;18.92;85.15;99615.52;179462;1259;44272;-82
2024/03/15 15:26:44;;;;;;;4.80;3.60;;;;;;;18.88;87.51;99615.84;179216;1256;59730;-82
2024/03/15 15:30:47;;;;;;;4.20;3.80;;;;;;;18.79;87.53;99614.49;179614;1255;45471;-82
2024/03/15 15:34:50;;;;;;;4.20;3.80;;;;;;;18.72;86.82;99616.84;179667;1255;45994;-82
2024/03/15 15:38:54;;;;;;;4.50;4.00;;;;;;;18.65;87.97;99613.73;179191;1257;46045;-82
2024/03/15 15:42:57;;;;;;;5.10;4.30;;;;;;;18.60;89.36;99618.83;179270;1256;46065;-82
2024/03/15 15:47:01;;;;;;;4.40;3.90;;;;;;;18.48;86.51;99620.01;178815;1255;60172;-82
2024/03/15 15:51:06;;;;;;;6.80;4.20;;;;;;;18.29;86.42;99623.98;179246;1255;45946;-82
2024/03/15 15:55:11;;;;;;;5.90;5.10;;;;;;;18.13;87.03;99624.13;180212;1257;45996;-82
2024/03/15 15:59:14;;;;;;;4.20;3.60;;;;;;;18.02;87.45;99631.03;179772;1259;46086;-82
2024/03/15 16:03:17;;;;;;;8.30;3.30;;;;;;;17.94;86.96;99630.10;178930;1255;46145;-82
2024/03/15 16:07:21;;;;;;;10.20;4.60;;;;;;;17.91;85.93;99631.39;179666;1257;58191;-83
2024/03/15 16:11:25;;;;;;;7.00;4.20;;;;;;;17.89;84.67;99632.90;179220;1256;45123;-81
2024/03/15 16:15:29;;;;;;;5.80;3.70;;;;;;;17.84;84.52;99635.54;179997;1259;46131;-81
2024/03/15 16:19:33;;;;;;;3.60;3.30;;;;;;;17.80;85.13;99637.33;179031;1257;45950;-81
2024/03/15 16:23:36;;;;;;;5.60;4.30;;;;;;;17.76;86.42;99634.08;179973;1259;46070;-81
2024/03/15 16:27:38;;;;;;;5.50;3.70;;;;;;;17.67;85.79;99633.69;179470;1256;58697;-81
2024/03/15 16:31:41;;;;;;;5.50;3.70;;;;;;;17.61;85.82;99634.15;179716;1256;45169;-81
2024/03/15 16:35:48;;;;;;;8.60;4.60;;;;;;;17.51;86.06;99631.31;179331;1255;46150;-81
2024/03/15 16:39:51;;;;;;;17.10;9.30;;;;;;;17.37;85.62;99631.38;180107;1255;45911;-81
2024/03/15 16:43:54;;;;;;;26.80;17.90;;;;;;;17.16;84.75;99630.80;179893;1256;46037;-81
2024/03/15 16:47:57;;;;;;;16.30;12.20;;;;;;;16.90;86.85;99631.57;179704;1254;56993;-82
2024/03/15 16:52:01;;;;;;;30.70;20.90;;;;;;;16.59;88.68;99637.67;179512;1255;46036;-81
2024/03/15 16:56:04;;;;;;;31.30;18.20;;;;;;;16.32;90.26;99635.07;180158;1257;44842;-82
2024/03/15 17:00:16;;;;;;;26.90;20.40;;;;;;;16.17;90.40;99633.52;179877;1257;44633;-81
2024/03/15 17:04:19;;;;;;;26.90;19.20;;;;;;;16.06;90.13;99632.01;179072;1259;46065;-81
2024/03/15 17:08:23;;;;;;;41.60;29.30;;;;;;;15.93;90.53;99636.78;179401;1256;59537;-81
2024/03/15 17:12:26;;;;;;;56.60;33.10;;;;;;;15.79;91.22;99635.55;179293;1257;46032;-81
2024/03/15 17:16:29;;;;;;;48.30;31.70;;;;;;;15.72;91.32;99639.99;179098;1259;45989;-81
2024/03/15 17:20:32;;;;;;;29.00;19.50;;;;;;;15.67;91.47;99641.08;178489;1259;45986;-81
2024/03/15 17:24:35;;;;;;;20.50;14.80;;;;;;;15.60;92.15;99645.23;178123;1257;46041;-82
2024/03/15 17:28:38;;;;;;;21.10;14.90;;;;;;;15.50;92.65;99646.15;179154;1257;57994;-81
2024/03/15 17:32:43;;;;;;;20.20;15.80;;;;;;;15.39;93.56;99652.75;178745;1257;46004;-80
2024/03/15 17:36:46;;;;;;;25.60;19.50;;;;;;;15.27;94.14;99659.95;177888;1256;46763;-80
2024/03/15 17:40:50;;;;;;;131.50;85.90;;;;;;;15.15;94.76;99663.94;177788;1257;46109;-79
2024/03/15 17:44:55;;;;;;;185.70;129.70;;;;;;;15.01;96.49;99665.36;178962;1258;44221;-81
2024/03/15 17:48:58;;;;;;;101.00;70.40;;;;;;;14.83;97.71;99662.29;178930;1259;60017;-81
2024/03/15 17:53:03;;;;;;;63.20;41.20;;;;;;;14.73;97.60;99669.31;178713;1258;46196;-81
2024/03/15 17:57:06;;;;;;;47.60;32.90;;;;;;;14.68;97.41;99679.80;178893;1255;44333;-81
2024/03/15 18:01:09;;;;;;;34.70;23.70;;;;;;;14.58;98.64;99683.24;178610;1259;46045;-81
2024/03/15 18:05:12;;;;;;;43.10;26.80;;;;;;;14.50;98.85;99689.61;177657;1254;45259;-81
2024/03/15 18:09:15;;;;;;;38.00;29.30;;;;;;;14.45;98.36;99694.94;178629;1255;58163;-81
2024/03/15 18:13:18;;;;;;;30.40;21.80;;;;;;;14.44;97.86;99698.25;179063;1259;46058;-81
2024/03/15 18:17:21;;;;;;;28.30;20.00;;;;;;;14.39;98.74;99699.82;179164;1259;46165;-81
2024/03/15 18:21:24;;;;;;;31.30;18.90;;;;;;;14.26;99.94;99715.27;180246;1259;44104;-82
2024/03/15 18:25:27;;;;;;;23.20;18.00;;;;;;;14.10;100.00;99720.79;178908;1260;46138;-81
2024/03/15 18:29:30;;;;;;;28.50;16.40;;;;;;;13.98;100.00;99725.05;179664;1255;59853;-81
2024/03/15 18:33:33;;;;;;;17.00;13.40;;;;;;;13.90;100.00;99728.88;179899;1254;46076;-81
2024/03/15 18:37:36;;;;;;;14.00;11.90;;;;;;;13.86;100.00;99731.10;179374;1257;46073;-82
2024/03/15 18:41:40;;;;;;;14.20;12.80;;;;;;;13.87;100.00;99734.35;179523;1254;45917;-81
2024/03/15 18:45:45;;;;;;;18.50;12.60;;;;;;;13.88;100.00;99728.97;179107;1255;45956;-81
2024/03/15 18:49:51;;;;;;;14.70;12.80;;;;;;;13.89;100.00;99725.98;178882;1255;58323;-80
2024/03/15 18:53:54;;;;;;;16.40;11.60;;;;;;;13.90;100.00;99727.30;178425;1257;45991;-81